sensor_id;sensor_type;location;lat;lon;timestamp;temperature;humidity
29345;DHT22;16339;48.748;2.222;2023-12-04T00:01:33;6.70;95.00
29345;DHT22;16339;48.748;2.222;2023-12-04T00:04:02;6.70;95.20
29345;DHT22;16339;48.748;2.222;2023-12-04T00:06:30;6.70;94.80
29345;DHT22;16339;48.748;2.222;2023-12-04T00:08:59;6.70;94.70
29345;DHT22;16339;48.748;2.222;2023-12-04T00:11:30;6.70;94.40
29345;DHT22;16339;48.748;2.222;2023-12-04T00:13:59;6.70;94.40
29345;DHT22;16339;48.748;2.222;2023-12-04T00:16:28;6.70;94.40
29345;DHT22;16339;48.748;2.222;2023-12-04T00:18:56;6.80;94.50
29345;DHT22;16339;48.748;2.222;2023-12-04T00:21:25;6.70;94.30
29345;DHT22;16339;48.748;2.222;2023-12-04T00:23:54;6.70;94.40
29345;DHT22;16339;48.748;2.222;2023-12-04T00:26:22;6.80;94.60
29345;DHT22;16339;48.748;2.222;2023-12-04T00:28:53;6.80;94.40
29345;DHT22;16339;48.748;2.222;2023-12-04T00:31:22;6.80;94.50
29345;DHT22;16339;48.748;2.222;2023-12-04T00:33:51;6.80;94.30
29345;DHT22;16339;48.748;2.222;2023-12-04T00:36:17;6.80;94.50
29345;DHT22;16339;48.748;2.222;2023-12-04T00:38:46;6.80;94.60
29345;DHT22;16339;48.748;2.222;2023-12-04T00:41:15;6.80;94.50
29345;DHT22;16339;48.748;2.222;2023-12-04T00:43:44;6.80;94.70
29345;DHT22;16339;48.748;2.222;2023-12-04T00:46:15;6.80;94.70
29345;DHT22;16339;48.748;2.222;2023-12-04T00:48:43;6.80;94.60
29345;DHT22;16339;48.748;2.222;2023-12-04T00:51:12;6.90;94.60
29345;DHT22;16339;48.748;2.222;2023-12-04T00:53:42;6.90;94.60
29345;DHT22;16339;48.748;2.222;2023-12-04T00:56:11;6.90;94.60
29345;DHT22;16339;48.748;2.222;2023-12-04T00:58:39;6.90;94.60
29345;DHT22;16339;48.748;2.222;2023-12-04T01:01:08;6.90;94.70
29345;DHT22;16339;48.748;2.222;2023-12-04T01:03:40;6.90;94.60
29345;DHT22;16339;48.748;2.222;2023-12-04T01:06:20;6.90;94.70
29345;DHT22;16339;48.748;2.222;2023-12-04T01:08:49;6.90;94.70
29345;DHT22;16339;48.748;2.222;2023-12-04T01:11:18;6.90;94.60
29345;DHT22;16339;48.748;2.222;2023-12-04T01:13:48;6.90;94.80
29345;DHT22;16339;48.748;2.222;2023-12-04T01:16:17;7.00;94.60
29345;DHT22;16339;48.748;2.222;2023-12-04T01:21:59;7.00;94.50
29345;DHT22;16339;48.748;2.222;2023-12-04T01:24:28;6.90;94.70
29345;DHT22;16339;48.748;2.222;2023-12-04T01:26:56;7.00;94.80
29345;DHT22;16339;48.748;2.222;2023-12-04T01:29:25;7.00;94.70
29345;DHT22;16339;48.748;2.222;2023-12-04T01:31:54;7.00;94.60
29345;DHT22;16339;48.748;2.222;2023-12-04T01:34:23;6.90;94.20
29345;DHT22;16339;48.748;2.222;2023-12-04T01:36:52;7.00;94.30
29345;DHT22;16339;48.748;2.222;2023-12-04T01:39:24;7.00;94.50
29345;DHT22;16339;48.748;2.222;2023-12-04T01:41:53;7.00;94.50
29345;DHT22;16339;48.748;2.222;2023-12-04T01:44:22;7.10;94.40
29345;DHT22;16339;48.748;2.222;2023-12-04T01:46:50;7.00;94.40
29345;DHT22;16339;48.748;2.222;2023-12-04T01:49:19;7.00;94.40
29345;DHT22;16339;48.748;2.222;2023-12-04T01:51:49;7.10;94.30
29345;DHT22;16339;48.748;2.222;2023-12-04T01:54:17;7.00;94.20
29345;DHT22;16339;48.748;2.222;2023-12-04T01:56:49;7.10;94.30
29345;DHT22;16339;48.748;2.222;2023-12-04T01:59:17;7.10;94.50
29345;DHT22;16339;48.748;2.222;2023-12-04T02:01:46;7.10;94.20
29345;DHT22;16339;48.748;2.222;2023-12-04T02:04:16;7.10;94.20
29345;DHT22;16339;48.748;2.222;2023-12-04T02:06:44;7.00;94.20
29345;DHT22;16339;48.748;2.222;2023-12-04T02:09:13;7.00;94.20
29345;DHT22;16339;48.748;2.222;2023-12-04T02:11:42;7.10;94.50
29345;DHT22;16339;48.748;2.222;2023-12-04T02:14:13;7.10;94.50
29345;DHT22;16339;48.748;2.222;2023-12-04T02:16:42;7.10;94.60
29345;DHT22;16339;48.748;2.222;2023-12-04T02:19:12;7.20;94.50
29345;DHT22;16339;48.748;2.222;2023-12-04T02:21:40;7.10;94.20
29345;DHT22;16339;48.748;2.222;2023-12-04T02:24:12;7.10;94.30
29345;DHT22;16339;48.748;2.222;2023-12-04T02:26:42;7.20;94.40
29345;DHT22;16339;48.748;2.222;2023-12-04T02:29:17;7.10;94.30
29345;DHT22;16339;48.748;2.222;2023-12-04T02:31:50;7.10;94.30
29345;DHT22;16339;48.748;2.222;2023-12-04T02:34:20;7.20;94.50
29345;DHT22;16339;48.748;2.222;2023-12-04T02:36:50;7.20;94.40
29345;DHT22;16339;48.748;2.222;2023-12-04T02:39:22;7.20;94.40
29345;DHT22;16339;48.748;2.222;2023-12-04T02:41:51;7.20;94.40
29345;DHT22;16339;48.748;2.222;2023-12-04T02:44:19;7.20;94.70
29345;DHT22;16339;48.748;2.222;2023-12-04T02:46:48;7.20;94.80
29345;DHT22;16339;48.748;2.222;2023-12-04T02:49:17;7.10;94.50
29345;DHT22;16339;48.748;2.222;2023-12-04T02:51:45;7.20;94.60
29345;DHT22;16339;48.748;2.222;2023-12-04T02:54:14;7.20;94.50
29345;DHT22;16339;48.748;2.222;2023-12-04T02:56:45;7.20;94.70
29345;DHT22;16339;48.748;2.222;2023-12-04T02:59:14;7.20;95.00
29345;DHT22;16339;48.748;2.222;2023-12-04T03:01:42;7.30;95.50
29345;DHT22;16339;48.748;2.222;2023-12-04T03:04:11;7.30;95.80
29345;DHT22;16339;48.748;2.222;2023-12-04T03:06:40;7.30;96.00
29345;DHT22;16339;48.748;2.222;2023-12-04T03:09:08;7.30;96.20
29345;DHT22;16339;48.748;2.222;2023-12-04T03:11:39;7.30;96.20
29345;DHT22;16339;48.748;2.222;2023-12-04T03:14:11;7.20;96.00
29345;DHT22;16339;48.748;2.222;2023-12-04T03:16:39;7.30;96.00
29345;DHT22;16339;48.748;2.222;2023-12-04T03:19:08;7.30;96.20
29345;DHT22;16339;48.748;2.222;2023-12-04T03:21:37;7.30;96.40
29345;DHT22;16339;48.748;2.222;2023-12-04T03:24:05;7.30;96.30
29345;DHT22;16339;48.748;2.222;2023-12-04T03:26:35;7.30;96.30
29345;DHT22;16339;48.748;2.222;2023-12-04T03:29:04;7.30;96.50
29345;DHT22;16339;48.748;2.222;2023-12-04T03:31:35;7.30;96.60
29345;DHT22;16339;48.748;2.222;2023-12-04T03:34:03;7.20;96.60
29345;DHT22;16339;48.748;2.222;2023-12-04T03:36:32;7.30;97.00
29345;DHT22;16339;48.748;2.222;2023-12-04T03:39:01;7.30;97.30
29345;DHT22;16339;48.748;2.222;2023-12-04T03:41:30;7.30;97.50
29345;DHT22;16339;48.748;2.222;2023-12-04T03:43:58;7.30;97.40
29345;DHT22;16339;48.748;2.222;2023-12-04T03:46:27;7.30;97.60
29345;DHT22;16339;48.748;2.222;2023-12-04T03:48:58;7.30;97.90
29345;DHT22;16339;48.748;2.222;2023-12-04T03:51:28;7.40;98.30
29345;DHT22;16339;48.748;2.222;2023-12-04T03:53:56;7.30;99.00
29345;DHT22;16339;48.748;2.222;2023-12-04T03:56:25;7.30;99.90
29345;DHT22;16339;48.748;2.222;2023-12-04T03:58:54;7.30;99.90
29345;DHT22;16339;48.748;2.222;2023-12-04T04:01:22;7.30;99.90
29345;DHT22;16339;48.748;2.222;2023-12-04T04:03:51;7.20;99.90
29345;DHT22;16339;48.748;2.222;2023-12-04T04:06:22;7.20;99.90
29345;DHT22;16339;48.748;2.222;2023-12-04T04:08:51;7.20;99.90
29345;DHT22;16339;48.748;2.222;2023-12-04T04:11:20;7.20;99.90
29345;DHT22;16339;48.748;2.222;2023-12-04T04:13:49;7.20;99.90
29345;DHT22;16339;48.748;2.222;2023-12-04T04:16:18;7.20;99.90
29345;DHT22;16339;48.748;2.222;2023-12-04T04:18:46;7.10;99.90
29345;DHT22;16339;48.748;2.222;2023-12-04T04:21:15;7.20;99.90
29345;DHT22;16339;48.748;2.222;2023-12-04T04:23:46;7.10;99.90
29345;DHT22;16339;48.748;2.222;2023-12-04T04:26:15;7.10;99.90
29345;DHT22;16339;48.748;2.222;2023-12-04T04:28:44;7.10;99.90
29345;DHT22;16339;48.748;2.222;2023-12-04T04:31:12;7.10;99.90
29345;DHT22;16339;48.748;2.222;2023-12-04T04:33:41;7.00;99.90
29345;DHT22;16339;48.748;2.222;2023-12-04T04:36:10;7.00;99.90
29345;DHT22;16339;48.748;2.222;2023-12-04T04:38:40;7.00;99.90
29345;DHT22;16339;48.748;2.222;2023-12-04T04:41:15;7.00;99.90
29345;DHT22;16339;48.748;2.222;2023-12-04T04:43:44;7.00;99.90
29345;DHT22;16339;48.748;2.222;2023-12-04T04:46:13;7.10;99.90
29345;DHT22;16339;48.748;2.222;2023-12-04T04:48:41;7.10;99.90
29345;DHT22;16339;48.748;2.222;2023-12-04T04:51:10;7.10;99.90
29345;DHT22;16339;48.748;2.222;2023-12-04T04:53:39;7.10;99.90
29345;DHT22;16339;48.748;2.222;2023-12-04T04:56:09;7.10;99.90
29345;DHT22;16339;48.748;2.222;2023-12-04T04:58:41;7.10;99.90
29345;DHT22;16339;48.748;2.222;2023-12-04T05:01:09;7.00;99.90
29345;DHT22;16339;48.748;2.222;2023-12-04T05:03:38;7.10;99.90
29345;DHT22;16339;48.748;2.222;2023-12-04T05:06:07;7.00;99.90
29345;DHT22;16339;48.748;2.222;2023-12-04T05:08:36;7.00;99.90
29345;DHT22;16339;48.748;2.222;2023-12-04T05:11:05;7.00;99.90
29345;DHT22;16339;48.748;2.222;2023-12-04T05:13:34;7.00;99.90
29345;DHT22;16339;48.748;2.222;2023-12-04T05:16:06;7.00;99.90
29345;DHT22;16339;48.748;2.222;2023-12-04T05:18:34;6.90;99.90
29345;DHT22;16339;48.748;2.222;2023-12-04T05:21:03;7.00;99.90
29345;DHT22;16339;48.748;2.222;2023-12-04T05:23:36;7.00;99.90
29345;DHT22;16339;48.748;2.222;2023-12-04T05:26:06;7.00;99.90
29345;DHT22;16339;48.748;2.222;2023-12-04T05:28:35;7.00;99.90
29345;DHT22;16339;48.748;2.222;2023-12-04T05:31:06;7.00;99.90
29345;DHT22;16339;48.748;2.222;2023-12-04T05:33:35;7.00;99.90
29345;DHT22;16339;48.748;2.222;2023-12-04T05:36:05;7.00;99.90
29345;DHT22;16339;48.748;2.222;2023-12-04T05:38:33;7.00;99.90
29345;DHT22;16339;48.748;2.222;2023-12-04T05:41:03;7.00;99.90
29345;DHT22;16339;48.748;2.222;2023-12-04T05:43:31;7.00;99.90
29345;DHT22;16339;48.748;2.222;2023-12-04T05:46:00;7.00;99.90
29345;DHT22;16339;48.748;2.222;2023-12-04T05:48:31;7.00;99.90
29345;DHT22;16339;48.748;2.222;2023-12-04T05:51:00;7.00;99.90
29345;DHT22;16339;48.748;2.222;2023-12-04T05:53:28;7.00;99.90
29345;DHT22;16339;48.748;2.222;2023-12-04T05:55:57;7.00;99.90
29345;DHT22;16339;48.748;2.222;2023-12-04T05:58:26;7.00;99.90
29345;DHT22;16339;48.748;2.222;2023-12-04T06:00:54;7.00;99.90
29345;DHT22;16339;48.748;2.222;2023-12-04T06:03:23;7.00;99.90
29345;DHT22;16339;48.748;2.222;2023-12-04T06:05:54;7.00;99.90
29345;DHT22;16339;48.748;2.222;2023-12-04T06:08:23;7.00;99.90
29345;DHT22;16339;48.748;2.222;2023-12-04T06:10:51;7.00;99.90
29345;DHT22;16339;48.748;2.222;2023-12-04T06:13:20;7.00;99.90
29345;DHT22;16339;48.748;2.222;2023-12-04T06:15:49;7.00;99.90
29345;DHT22;16339;48.748;2.222;2023-12-04T06:18:18;7.00;99.90
29345;DHT22;16339;48.748;2.222;2023-12-04T06:20:46;7.00;99.90
29345;DHT22;16339;48.748;2.222;2023-12-04T06:23:18;7.10;99.90
29345;DHT22;16339;48.748;2.222;2023-12-04T06:25:48;7.10;99.90
29345;DHT22;16339;48.748;2.222;2023-12-04T06:28:17;7.10;99.90
29345;DHT22;16339;48.748;2.222;2023-12-04T06:30:46;7.20;99.90
29345;DHT22;16339;48.748;2.222;2023-12-04T06:33:16;7.10;99.90
29345;DHT22;16339;48.748;2.222;2023-12-04T06:35:46;7.20;99.90
29345;DHT22;16339;48.748;2.222;2023-12-04T06:38:19;7.20;99.90
29345;DHT22;16339;48.748;2.222;2023-12-04T06:40:53;7.20;99.90
29345;DHT22;16339;48.748;2.222;2023-12-04T06:43:22;7.20;99.90
29345;DHT22;16339;48.748;2.222;2023-12-04T06:45:52;7.20;99.90
29345;DHT22;16339;48.748;2.222;2023-12-04T06:48:23;7.20;99.90
29345;DHT22;16339;48.748;2.222;2023-12-04T06:50:52;7.20;99.90
29345;DHT22;16339;48.748;2.222;2023-12-04T06:53:23;7.20;99.90
29345;DHT22;16339;48.748;2.222;2023-12-04T06:55:51;7.20;99.90
29345;DHT22;16339;48.748;2.222;2023-12-04T06:58:20;7.20;99.90
29345;DHT22;16339;48.748;2.222;2023-12-04T07:00:49;7.20;99.90
29345;DHT22;16339;48.748;2.222;2023-12-04T07:03:18;7.20;99.90
29345;DHT22;16339;48.748;2.222;2023-12-04T07:05:47;7.20;99.90
29345;DHT22;16339;48.748;2.222;2023-12-04T07:08:16;7.30;99.90
29345;DHT22;16339;48.748;2.222;2023-12-04T07:10:47;7.30;99.90
29345;DHT22;16339;48.748;2.222;2023-12-04T07:13:16;7.30;99.90
29345;DHT22;16339;48.748;2.222;2023-12-04T07:15:45;7.30;99.90
29345;DHT22;16339;48.748;2.222;2023-12-04T07:18:13;7.30;99.90
29345;DHT22;16339;48.748;2.222;2023-12-04T07:20:42;7.30;99.90
29345;DHT22;16339;48.748;2.222;2023-12-04T07:23:11;7.40;99.90
29345;DHT22;16339;48.748;2.222;2023-12-04T07:25:42;7.30;99.90
29345;DHT22;16339;48.748;2.222;2023-12-04T07:28:14;7.30;99.90
29345;DHT22;16339;48.748;2.222;2023-12-04T07:30:43;7.40;99.90
29345;DHT22;16339;48.748;2.222;2023-12-04T07:33:11;7.40;99.90
29345;DHT22;16339;48.748;2.222;2023-12-04T07:35:40;7.40;99.90
29345;DHT22;16339;48.748;2.222;2023-12-04T07:38:09;7.40;99.90
29345;DHT22;16339;48.748;2.222;2023-12-04T07:40:38;7.30;99.90
29345;DHT22;16339;48.748;2.222;2023-12-04T07:43:06;7.40;99.90
29345;DHT22;16339;48.748;2.222;2023-12-04T07:45:38;7.40;99.90
29345;DHT22;16339;48.748;2.222;2023-12-04T07:48:06;7.40;99.90
29345;DHT22;16339;48.748;2.222;2023-12-04T07:50:35;7.40;99.90
29345;DHT22;16339;48.748;2.222;2023-12-04T07:53:05;7.50;99.90
29345;DHT22;16339;48.748;2.222;2023-12-04T07:55:35;7.50;99.90
29345;DHT22;16339;48.748;2.222;2023-12-04T07:58:04;7.50;99.90
29345;DHT22;16339;48.748;2.222;2023-12-04T08:00:32;7.50;99.90
29345;DHT22;16339;48.748;2.222;2023-12-04T08:03:04;7.50;99.90
29345;DHT22;16339;48.748;2.222;2023-12-04T08:05:32;7.50;99.90
29345;DHT22;16339;48.748;2.222;2023-12-04T08:08:01;7.50;99.90
29345;DHT22;16339;48.748;2.222;2023-12-04T08:10:29;7.60;99.90
29345;DHT22;16339;48.748;2.222;2023-12-04T08:13:04;7.60;99.90
29345;DHT22;16339;48.748;2.222;2023-12-04T08:15:35;7.60;99.90
29345;DHT22;16339;48.748;2.222;2023-12-04T08:18:07;7.60;99.90
29345;DHT22;16339;48.748;2.222;2023-12-04T08:20:35;7.60;99.90
29345;DHT22;16339;48.748;2.222;2023-12-04T08:23:12;7.60;99.90
29345;DHT22;16339;48.748;2.222;2023-12-04T08:25:44;7.60;99.90
29345;DHT22;16339;48.748;2.222;2023-12-04T08:28:13;7.70;99.90
29345;DHT22;16339;48.748;2.222;2023-12-04T08:30:41;7.60;99.90
29345;DHT22;16339;48.748;2.222;2023-12-04T08:33:13;7.60;99.90
29345;DHT22;16339;48.748;2.222;2023-12-04T08:35:43;7.60;99.90
29345;DHT22;16339;48.748;2.222;2023-12-04T08:38:16;7.60;99.90
29345;DHT22;16339;48.748;2.222;2023-12-04T08:44:07;7.70;99.90
29345;DHT22;16339;48.748;2.222;2023-12-04T08:46:39;7.70;99.90
29345;DHT22;16339;48.748;2.222;2023-12-04T08:49:16;7.70;99.90
29345;DHT22;16339;48.748;2.222;2023-12-04T08:51:45;7.70;99.90
29345;DHT22;16339;48.748;2.222;2023-12-04T08:54:16;7.70;99.90
29345;DHT22;16339;48.748;2.222;2023-12-04T08:56:45;7.70;99.90
29345;DHT22;16339;48.748;2.222;2023-12-04T08:59:21;7.80;99.90
29345;DHT22;16339;48.748;2.222;2023-12-04T09:01:54;7.80;99.90
29345;DHT22;16339;48.748;2.222;2023-12-04T09:04:36;7.90;99.90
29345;DHT22;16339;48.748;2.222;2023-12-04T09:07:06;7.90;99.90
29345;DHT22;16339;48.748;2.222;2023-12-04T09:09:34;7.90;99.90
29345;DHT22;16339;48.748;2.222;2023-12-04T09:12:05;7.90;99.90
29345;DHT22;16339;48.748;2.222;2023-12-04T09:14:35;7.90;99.90
29345;DHT22;16339;48.748;2.222;2023-12-04T09:17:04;8.00;99.90
29345;DHT22;16339;48.748;2.222;2023-12-04T09:19:36;8.00;99.90
29345;DHT22;16339;48.748;2.222;2023-12-04T09:22:05;8.00;99.90
29345;DHT22;16339;48.748;2.222;2023-12-04T09:24:37;8.00;99.90
29345;DHT22;16339;48.748;2.222;2023-12-04T09:27:12;8.00;99.90
29345;DHT22;16339;48.748;2.222;2023-12-04T09:29:41;8.00;99.90
29345;DHT22;16339;48.748;2.222;2023-12-04T09:35:18;8.00;99.90
29345;DHT22;16339;48.748;2.222;2023-12-04T09:40:59;8.10;99.90
29345;DHT22;16339;48.748;2.222;2023-12-04T09:43:36;8.00;99.90
29345;DHT22;16339;48.748;2.222;2023-12-04T09:46:05;8.10;99.90
29345;DHT22;16339;48.748;2.222;2023-12-04T09:48:46;8.10;99.90
29345;DHT22;16339;48.748;2.222;2023-12-04T09:51:18;8.00;99.90
29345;DHT22;16339;48.748;2.222;2023-12-04T09:53:57;8.10;99.90
29345;DHT22;16339;48.748;2.222;2023-12-04T09:56:27;8.10;99.90
29345;DHT22;16339;48.748;2.222;2023-12-04T09:58:58;8.10;99.90
29345;DHT22;16339;48.748;2.222;2023-12-04T10:01:38;8.10;99.90
29345;DHT22;16339;48.748;2.222;2023-12-04T10:04:13;8.10;99.90
29345;DHT22;16339;48.748;2.222;2023-12-04T10:06:46;8.20;99.90
29345;DHT22;16339;48.748;2.222;2023-12-04T10:09:20;8.20;99.90
29345;DHT22;16339;48.748;2.222;2023-12-04T10:18:36;8.30;99.90
29345;DHT22;16339;48.748;2.222;2023-12-04T10:21:13;8.30;99.90
29345;DHT22;16339;48.748;2.222;2023-12-04T10:23:49;8.40;99.90
29345;DHT22;16339;48.748;2.222;2023-12-04T10:26:32;8.40;99.90
29345;DHT22;16339;48.748;2.222;2023-12-04T10:29:03;8.40;99.90
29345;DHT22;16339;48.748;2.222;2023-12-04T10:35:06;8.50;99.90
29345;DHT22;16339;48.748;2.222;2023-12-04T10:37:49;8.50;99.90
29345;DHT22;16339;48.748;2.222;2023-12-04T10:40:41;8.60;99.90
29345;DHT22;16339;48.748;2.222;2023-12-04T10:43:17;8.60;99.90
29345;DHT22;16339;48.748;2.222;2023-12-04T10:45:55;8.60;99.90
29345;DHT22;16339;48.748;2.222;2023-12-04T10:51:41;8.70;99.90
29345;DHT22;16339;48.748;2.222;2023-12-04T10:54:12;8.70;99.90
29345;DHT22;16339;48.748;2.222;2023-12-04T10:56:43;8.90;99.90
29345;DHT22;16339;48.748;2.222;2023-12-04T10:59:16;8.90;99.90
29345;DHT22;16339;48.748;2.222;2023-12-04T11:01:47;9.00;99.90
29345;DHT22;16339;48.748;2.222;2023-12-04T11:04:19;9.00;99.90
29345;DHT22;16339;48.748;2.222;2023-12-04T11:06:52;9.10;99.90
29345;DHT22;16339;48.748;2.222;2023-12-04T11:09:21;9.10;99.90
29345;DHT22;16339;48.748;2.222;2023-12-04T11:11:57;9.10;99.90
29345;DHT22;16339;48.748;2.222;2023-12-04T11:14:31;9.20;99.90
29345;DHT22;16339;48.748;2.222;2023-12-04T11:17:05;9.20;99.90
29345;DHT22;16339;48.748;2.222;2023-12-04T11:19:42;9.30;99.90
29345;DHT22;16339;48.748;2.222;2023-12-04T11:22:12;9.30;99.90
29345;DHT22;16339;48.748;2.222;2023-12-04T11:24:46;9.40;99.90
29345;DHT22;16339;48.748;2.222;2023-12-04T11:27:18;9.50;99.90
29345;DHT22;16339;48.748;2.222;2023-12-04T11:29:48;9.60;99.90
29345;DHT22;16339;48.748;2.222;2023-12-04T11:32:18;9.60;99.90
29345;DHT22;16339;48.748;2.222;2023-12-04T11:34:50;9.60;99.90
29345;DHT22;16339;48.748;2.222;2023-12-04T11:37:22;9.60;99.90
29345;DHT22;16339;48.748;2.222;2023-12-04T11:40:04;9.70;99.90
29345;DHT22;16339;48.748;2.222;2023-12-04T11:42:36;9.60;99.90
29345;DHT22;16339;48.748;2.222;2023-12-04T11:45:06;9.70;99.90
29345;DHT22;16339;48.748;2.222;2023-12-04T11:47:50;9.70;99.90
29345;DHT22;16339;48.748;2.222;2023-12-04T11:50:19;9.80;99.90
29345;DHT22;16339;48.748;2.222;2023-12-04T11:52:52;9.80;99.90
29345;DHT22;16339;48.748;2.222;2023-12-04T11:55:37;9.80;99.90
29345;DHT22;16339;48.748;2.222;2023-12-04T11:58:12;9.90;99.90
29345;DHT22;16339;48.748;2.222;2023-12-04T12:00:42;9.80;99.90
29345;DHT22;16339;48.748;2.222;2023-12-04T12:03:14;9.70;99.90
29345;DHT22;16339;48.748;2.222;2023-12-04T12:05:43;9.80;99.90
29345;DHT22;16339;48.748;2.222;2023-12-04T12:08:14;9.90;99.90
29345;DHT22;16339;48.748;2.222;2023-12-04T12:14:30;9.90;99.90
29345;DHT22;16339;48.748;2.222;2023-12-04T12:17:03;9.90;99.90
29345;DHT22;16339;48.748;2.222;2023-12-04T12:19:46;9.90;99.90
29345;DHT22;16339;48.748;2.222;2023-12-04T12:23:11;9.90;99.90
29345;DHT22;16339;48.748;2.222;2023-12-04T12:25:24;9.90;99.90
29345;DHT22;16339;48.748;2.222;2023-12-04T12:27:52;9.90;99.90
29345;DHT22;16339;48.748;2.222;2023-12-04T12:30:28;9.90;99.90
29345;DHT22;16339;48.748;2.222;2023-12-04T12:32:57;10.00;99.90
29345;DHT22;16339;48.748;2.222;2023-12-04T12:35:25;10.00;99.90
29345;DHT22;16339;48.748;2.222;2023-12-04T12:37:55;10.00;99.90
29345;DHT22;16339;48.748;2.222;2023-12-04T12:40:27;10.10;99.90
29345;DHT22;16339;48.748;2.222;2023-12-04T12:43:07;10.10;99.90
29345;DHT22;16339;48.748;2.222;2023-12-04T12:46:09;10.10;99.90
29345;DHT22;16339;48.748;2.222;2023-12-04T12:48:38;10.10;99.90
29345;DHT22;16339;48.748;2.222;2023-12-04T12:51:07;10.10;99.90
29345;DHT22;16339;48.748;2.222;2023-12-04T12:53:38;10.10;99.90
29345;DHT22;16339;48.748;2.222;2023-12-04T12:56:08;10.10;99.90
29345;DHT22;16339;48.748;2.222;2023-12-04T12:58:37;10.10;99.90
29345;DHT22;16339;48.748;2.222;2023-12-04T13:01:10;10.10;99.90
29345;DHT22;16339;48.748;2.222;2023-12-04T13:03:41;10.10;99.90
29345;DHT22;16339;48.748;2.222;2023-12-04T13:06:13;10.10;99.90
29345;DHT22;16339;48.748;2.222;2023-12-04T13:08:43;9.90;99.90
29345;DHT22;16339;48.748;2.222;2023-12-04T13:17:05;10.10;99.90
29345;DHT22;16339;48.748;2.222;2023-12-04T13:19:34;10.10;99.90
29345;DHT22;16339;48.748;2.222;2023-12-04T13:22:04;10.10;99.90
29345;DHT22;16339;48.748;2.222;2023-12-04T13:24:33;10.10;99.90
29345;DHT22;16339;48.748;2.222;2023-12-04T13:27:02;10.10;99.90
29345;DHT22;16339;48.748;2.222;2023-12-04T13:29:30;10.00;99.90
29345;DHT22;16339;48.748;2.222;2023-12-04T13:32:02;10.10;99.90
29345;DHT22;16339;48.748;2.222;2023-12-04T13:34:31;10.10;99.90
29345;DHT22;16339;48.748;2.222;2023-12-04T13:37:00;10.00;99.90
29345;DHT22;16339;48.748;2.222;2023-12-04T13:40:47;10.10;99.90
29345;DHT22;16339;48.748;2.222;2023-12-04T13:42:44;10.10;99.90
29345;DHT22;16339;48.748;2.222;2023-12-04T13:45:25;10.20;99.90
29345;DHT22;16339;48.748;2.222;2023-12-04T13:54:18;10.20;99.90
29345;DHT22;16339;48.748;2.222;2023-12-04T13:57:00;10.20;99.90
29345;DHT22;16339;48.748;2.222;2023-12-04T13:59:29;10.20;99.90
29345;DHT22;16339;48.748;2.222;2023-12-04T14:02:00;10.20;99.90
29345;DHT22;16339;48.748;2.222;2023-12-04T14:04:33;10.20;99.90
29345;DHT22;16339;48.748;2.222;2023-12-04T14:07:01;10.30;99.90
29345;DHT22;16339;48.748;2.222;2023-12-04T14:09:33;10.30;99.90
29345;DHT22;16339;48.748;2.222;2023-12-04T14:12:03;10.30;99.90
29345;DHT22;16339;48.748;2.222;2023-12-04T14:14:31;10.20;99.90
29345;DHT22;16339;48.748;2.222;2023-12-04T14:17:01;10.20;99.90
29345;DHT22;16339;48.748;2.222;2023-12-04T14:19:30;10.30;99.90
29345;DHT22;16339;48.748;2.222;2023-12-04T14:21:59;10.30;99.90
29345;DHT22;16339;48.748;2.222;2023-12-04T14:24:27;10.30;99.90
29345;DHT22;16339;48.748;2.222;2023-12-04T14:26:59;10.30;99.90
29345;DHT22;16339;48.748;2.222;2023-12-04T14:29:28;10.30;99.90
29345;DHT22;16339;48.748;2.222;2023-12-04T14:31:57;10.40;99.90
29345;DHT22;16339;48.748;2.222;2023-12-04T14:34:26;10.30;99.90
29345;DHT22;16339;48.748;2.222;2023-12-04T14:36:57;10.30;99.90
29345;DHT22;16339;48.748;2.222;2023-12-04T14:39:26;10.20;99.90
29345;DHT22;16339;48.748;2.222;2023-12-04T14:41:58;10.40;99.90
29345;DHT22;16339;48.748;2.222;2023-12-04T14:44:26;10.20;99.90
29345;DHT22;16339;48.748;2.222;2023-12-04T14:46:55;10.40;99.90
29345;DHT22;16339;48.748;2.222;2023-12-04T14:49:26;10.20;99.90
29345;DHT22;16339;48.748;2.222;2023-12-04T14:52:05;10.30;99.90
29345;DHT22;16339;48.748;2.222;2023-12-04T14:55:01;10.30;99.90
29345;DHT22;16339;48.748;2.222;2023-12-04T15:08:07;10.40;99.90
29345;DHT22;16339;48.748;2.222;2023-12-04T15:11:23;10.50;99.90
29345;DHT22;16339;48.748;2.222;2023-12-04T15:14:08;10.50;99.90
29345;DHT22;16339;48.748;2.222;2023-12-04T15:16:51;10.50;99.90
29345;DHT22;16339;48.748;2.222;2023-12-04T15:19:21;10.50;99.90
29345;DHT22;16339;48.748;2.222;2023-12-04T15:22:02;10.50;99.90
29345;DHT22;16339;48.748;2.222;2023-12-04T15:31:00;10.50;99.90
29345;DHT22;16339;48.748;2.222;2023-12-04T15:33:29;10.50;99.90
29345;DHT22;16339;48.748;2.222;2023-12-04T15:35:58;10.60;99.90
29345;DHT22;16339;48.748;2.222;2023-12-04T15:38:26;10.70;99.90
29345;DHT22;16339;48.748;2.222;2023-12-04T15:40:57;10.70;99.90
29345;DHT22;16339;48.748;2.222;2023-12-04T15:43:29;10.70;99.90
29345;DHT22;16339;48.748;2.222;2023-12-04T15:45:55;10.70;99.90
29345;DHT22;16339;48.748;2.222;2023-12-04T15:48:23;10.70;99.90
29345;DHT22;16339;48.748;2.222;2023-12-04T15:50:49;10.60;99.90
29345;DHT22;16339;48.748;2.222;2023-12-04T15:53:18;10.50;99.90
29345;DHT22;16339;48.748;2.222;2023-12-04T15:55:47;10.60;99.90
29345;DHT22;16339;48.748;2.222;2023-12-04T15:58:19;10.60;99.90
29345;DHT22;16339;48.748;2.222;2023-12-04T16:00:52;10.60;99.90
29345;DHT22;16339;48.748;2.222;2023-12-04T16:03:18;10.80;99.90
29345;DHT22;16339;48.748;2.222;2023-12-04T16:22:07;10.80;99.90
29345;DHT22;16339;48.748;2.222;2023-12-04T16:24:53;10.70;99.90
29345;DHT22;16339;48.748;2.222;2023-12-04T16:27:22;10.80;99.90
29345;DHT22;16339;48.748;2.222;2023-12-04T16:33:34;10.80;99.90
29345;DHT22;16339;48.748;2.222;2023-12-04T16:48:22;10.80;99.90
29345;DHT22;16339;48.748;2.222;2023-12-04T16:50:51;10.90;99.90
29345;DHT22;16339;48.748;2.222;2023-12-04T16:53:20;10.90;99.90
29345;DHT22;16339;48.748;2.222;2023-12-04T16:55:50;10.90;99.90
29345;DHT22;16339;48.748;2.222;2023-12-04T16:58:19;10.90;99.90
29345;DHT22;16339;48.748;2.222;2023-12-04T17:00:48;10.80;99.90
29345;DHT22;16339;48.748;2.222;2023-12-04T17:03:16;10.90;99.90
29345;DHT22;16339;48.748;2.222;2023-12-04T17:05:48;10.90;99.90
29345;DHT22;16339;48.748;2.222;2023-12-04T17:08:17;11.00;99.90
29345;DHT22;16339;48.748;2.222;2023-12-04T17:10:47;10.90;99.90
29345;DHT22;16339;48.748;2.222;2023-12-04T17:13:16;10.90;99.90
29345;DHT22;16339;48.748;2.222;2023-12-04T17:15:45;11.00;99.90
29345;DHT22;16339;48.748;2.222;2023-12-04T17:18:14;11.10;99.90
29345;DHT22;16339;48.748;2.222;2023-12-04T17:20:43;11.10;99.90
29345;DHT22;16339;48.748;2.222;2023-12-04T17:23:14;11.10;99.90
29345;DHT22;16339;48.748;2.222;2023-12-04T17:25:42;11.10;99.90
29345;DHT22;16339;48.748;2.222;2023-12-04T17:28:12;11.10;99.90
29345;DHT22;16339;48.748;2.222;2023-12-04T17:30:41;11.10;99.90
29345;DHT22;16339;48.748;2.222;2023-12-04T17:33:09;11.10;99.90
29345;DHT22;16339;48.748;2.222;2023-12-04T17:35:40;11.10;99.90
29345;DHT22;16339;48.748;2.222;2023-12-04T17:38:09;11.00;99.90